N3898R KGIF-KLAL
Flight info
| Callsign | N3898R |
|---|---|
| Flight time | N/A |
| Altitude | 5000 |
| Route | VPFSY VPTCK VPKER |
| Aircraft | C172/L-SDE3/L |
Departure
| Time | 2026-04-18 15:45 |
|---|---|
| Airport | Winter Haven Regional Airport - Gilbert Field (KGIF) |
Arrival
| Time | N/A |
|---|---|
| Airport | Lakeland Linder International Airport (KLAL) |
| Time | Latitude | Longitude | Altitude | Speed | Heading |
|---|---|---|---|---|---|
| 2026-04-18 15:39 | 28.06329 | -81.76053 | 136 ft | 0 kts | 17° |
| 2026-04-18 15:43 | 28.06343 | -81.76049 | 137 ft | 7 kts | 19° |
| 2026-04-18 15:44 | 28.06343 | -81.75983 | 138 ft | 28 kts | 103° |
| 2026-04-18 15:44 | 28.06283 | -81.75689 | 142 ft | 67 kts | 104° |
| 2026-04-18 15:44 | 28.06207 | -81.75282 | 332 ft | 62 kts | 102° |
| 2026-04-18 15:44 | 28.06233 | -81.74937 | 438 ft | 71 kts | 73° |
| 2026-04-18 15:45 | 28.06434 | -81.74619 | 524 ft | 80 kts | 42° |
| 2026-04-18 15:45 | 28.06748 | -81.74423 | 611 ft | 87 kts | 24° |
| 2026-04-18 15:45 | 28.07110 | -81.74270 | 694 ft | 93 kts | 21° |
| 2026-04-18 15:45 | 28.07511 | -81.74110 | 784 ft | 97 kts | 20° |
| 2026-04-18 15:46 | 28.07914 | -81.73951 | 896 ft | 98 kts | 20° |
| 2026-04-18 15:46 | 28.08285 | -81.73804 | 997 ft | 98 kts | 20° |
| 2026-04-18 15:46 | 28.08640 | -81.73663 | 1093 ft | 99 kts | 20° |
| 2026-04-18 15:46 | 28.09091 | -81.73483 | 1215 ft | 99 kts | 20° |
| 2026-04-18 15:47 | 28.09738 | -81.73223 | 1324 ft | 104 kts | 20° |
| 2026-04-18 15:47 | 28.10217 | -81.73029 | 1319 ft | 112 kts | 20° |
| 2026-04-18 15:47 | 28.10964 | -81.72724 | 1314 ft | 116 kts | 20° |
| 2026-04-18 15:47 | 28.11559 | -81.72560 | 1311 ft | 118 kts | 8° |
| 2026-04-18 15:48 | 28.12115 | -81.72511 | 1308 ft | 119 kts | 357° |
| 2026-04-18 15:48 | 28.12724 | -81.72697 | 1306 ft | 118 kts | 333° |
| 2026-04-18 15:48 | 28.13231 | -81.73048 | 1309 ft | 116 kts | 324° |
| 2026-04-18 15:48 | 28.13747 | -81.73463 | 1308 ft | 115 kts | 322° |
| 2026-04-18 15:49 | 28.14293 | -81.74057 | 1308 ft | 113 kts | 304° |
| 2026-04-18 15:49 | 28.14649 | -81.74650 | 1309 ft | 112 kts | 299° |
| 2026-04-18 15:49 | 28.14969 | -81.75357 | 1310 ft | 112 kts | 292° |
| 2026-04-18 15:49 | 28.15148 | -81.75791 | 1310 ft | 111 kts | 292° |
| 2026-04-18 15:50 | 28.15409 | -81.76437 | 1310 ft | 111 kts | 292° |
| 2026-04-18 15:50 | 28.15572 | -81.76842 | 1310 ft | 111 kts | 292° |
| 2026-04-18 15:50 | 28.15782 | -81.77367 | 1310 ft | 111 kts | 292° |
| 2026-04-18 15:50 | 28.15959 | -81.77818 | 1311 ft | 111 kts | 290° |
| 2026-04-18 15:51 | 28.16134 | -81.78306 | 1311 ft | 111 kts | 289° |
| 2026-04-18 15:51 | 28.16316 | -81.78825 | 1311 ft | 111 kts | 289° |
| 2026-04-18 15:51 | 28.16550 | -81.79497 | 1311 ft | 111 kts | 289° |
| 2026-04-18 15:51 | 28.16738 | -81.80212 | 1305 ft | 108 kts | 272° |
| 2026-04-18 15:52 | 28.16635 | -81.80914 | 1306 ft | 103 kts | 244° |
| 2026-04-18 15:52 | 28.16357 | -81.81370 | 1307 ft | 100 kts | 222° |
| 2026-04-18 15:52 | 28.16005 | -81.81644 | 1309 ft | 98 kts | 206° |
| 2026-04-18 15:52 | 28.15606 | -81.81841 | 1311 ft | 98 kts | 200° |
| 2026-04-18 15:53 | 28.15224 | -81.82000 | 1310 ft | 97 kts | 198° |
| 2026-04-18 15:53 | 28.14840 | -81.82149 | 1310 ft | 97 kts | 197° |
| 2026-04-18 15:53 | 28.14336 | -81.82342 | 1309 ft | 97 kts | 197° |
| 2026-04-18 15:53 | 28.13893 | -81.82510 | 1309 ft | 96 kts | 197° |
| 2026-04-18 15:54 | 28.13462 | -81.82672 | 1308 ft | 96 kts | 197° |
| 2026-04-18 15:54 | 28.13032 | -81.82835 | 1308 ft | 96 kts | 197° |
| 2026-04-18 15:54 | 28.12579 | -81.83006 | 1307 ft | 96 kts | 197° |
| 2026-04-18 15:54 | 28.12227 | -81.83195 | 1302 ft | 97 kts | 212° |
| 2026-04-18 15:55 | 28.11858 | -81.83659 | 1305 ft | 102 kts | 237° |
| 2026-04-18 15:55 | 28.11677 | -81.84144 | 1310 ft | 107 kts | 249° |
| 2026-04-18 15:55 | 28.11522 | -81.84746 | 1310 ft | 110 kts | 252° |
| 2026-04-18 15:55 | 28.11419 | -81.85193 | 1310 ft | 112 kts | 253° |
| 2026-04-18 15:56 | 28.11307 | -81.85679 | 1309 ft | 114 kts | 252° |
| 2026-04-18 15:56 | 28.11174 | -81.86253 | 1307 ft | 115 kts | 252° |
| 2026-04-18 15:56 | 28.11026 | -81.86791 | 1307 ft | 116 kts | 248° |
| 2026-04-18 15:56 | 28.10817 | -81.87420 | 1306 ft | 117 kts | 246° |
| 2026-04-18 15:57 | 28.10609 | -81.88017 | 1305 ft | 117 kts | 246° |
| 2026-04-18 15:57 | 28.10467 | -81.88421 | 1305 ft | 118 kts | 246° |
| 2026-04-18 15:57 | 28.10312 | -81.88858 | 1304 ft | 118 kts | 246° |
| 2026-04-18 15:57 | 28.10089 | -81.89490 | 1303 ft | 118 kts | 246° |
| 2026-04-18 15:58 | 28.09839 | -81.90162 | 1302 ft | 117 kts | 243° |
| 2026-04-18 15:58 | 28.09636 | -81.90666 | 1302 ft | 117 kts | 243° |
| 2026-04-18 15:58 | 28.09476 | -81.91211 | 1298 ft | 118 kts | 256° |
| 2026-04-18 15:58 | 28.09416 | -81.91679 | 1301 ft | 118 kts | 261° |
| 2026-04-18 15:59 | 28.09359 | -81.92303 | 1301 ft | 118 kts | 262° |
| 2026-04-18 15:59 | 28.09312 | -81.92891 | 1301 ft | 118 kts | 263° |
| 2026-04-18 15:59 | 28.09252 | -81.93706 | 1301 ft | 118 kts | 263° |
| 2026-04-18 15:59 | 28.09207 | -81.94339 | 1301 ft | 118 kts | 263° |
| 2026-04-18 16:00 | 28.09161 | -81.94995 | 1301 ft | 118 kts | 263° |
| 2026-04-18 16:00 | 28.09099 | -81.95840 | 1302 ft | 118 kts | 261° |
| 2026-04-18 16:00 | 28.08947 | -81.96297 | 1299 ft | 116 kts | 237° |
| 2026-04-18 16:00 | 28.08639 | -81.96806 | 1303 ft | 115 kts | 231° |
| 2026-04-18 16:01 | 28.08237 | -81.97400 | 1268 ft | 117 kts | 230° |
| 2026-04-18 16:01 | 28.07933 | -81.97843 | 1225 ft | 119 kts | 230° |
| 2026-04-18 16:01 | 28.07624 | -81.98290 | 1181 ft | 120 kts | 230° |
| 2026-04-18 16:01 | 28.07336 | -81.98704 | 1140 ft | 121 kts | 230° |
| 2026-04-18 16:02 | 28.06983 | -81.99213 | 1093 ft | 122 kts | 230° |
| 2026-04-18 16:02 | 28.06579 | -81.99788 | 1097 ft | 120 kts | 228° |
| 2026-04-18 16:02 | 28.06028 | -82.00299 | 1092 ft | 117 kts | 206° |
| 2026-04-18 16:02 | 28.05387 | -82.00512 | 1089 ft | 112 kts | 183° |
| 2026-04-18 16:03 | 28.04742 | -82.00506 | 1097 ft | 108 kts | 174° |